sensor_id;sensor_type;location;lat;lon;timestamp;temperature;humidity
20528;DHT22;23612;50.894;10.700;2024-02-26T00:02:15;1.00;99.90
20528;DHT22;23612;50.894;10.700;2024-02-26T00:04:40;1.10;99.90
20528;DHT22;23612;50.894;10.700;2024-02-26T00:07:06;1.10;99.90
20528;DHT22;23612;50.894;10.700;2024-02-26T00:09:32;1.10;99.90
20528;DHT22;23612;50.894;10.700;2024-02-26T00:12:01;1.20;99.90
20528;DHT22;23612;50.894;10.700;2024-02-26T00:14:26;1.20;99.90
20528;DHT22;23612;50.894;10.700;2024-02-26T00:16:52;1.20;99.90
20528;DHT22;23612;50.894;10.700;2024-02-26T00:19:17;1.10;99.90
20528;DHT22;23612;50.894;10.700;2024-02-26T00:21:43;1.00;99.90
20528;DHT22;23612;50.894;10.700;2024-02-26T00:24:08;0.80;99.90
20528;DHT22;23612;50.894;10.700;2024-02-26T00:26:34;0.60;99.90
20528;DHT22;23612;50.894;10.700;2024-02-26T00:28:59;0.60;99.90
20528;DHT22;23612;50.894;10.700;2024-02-26T00:31:25;0.60;99.90
20528;DHT22;23612;50.894;10.700;2024-02-26T00:33:50;0.60;99.90
20528;DHT22;23612;50.894;10.700;2024-02-26T00:36:16;0.60;99.90
20528;DHT22;23612;50.894;10.700;2024-02-26T00:38:41;0.70;99.90
20528;DHT22;23612;50.894;10.700;2024-02-26T00:41:08;0.70;99.90
20528;DHT22;23612;50.894;10.700;2024-02-26T00:43:33;0.70;99.90
20528;DHT22;23612;50.894;10.700;2024-02-26T00:45:59;0.70;99.90
20528;DHT22;23612;50.894;10.700;2024-02-26T00:48:24;0.80;99.90
20528;DHT22;23612;50.894;10.700;2024-02-26T00:50:51;0.80;99.90
20528;DHT22;23612;50.894;10.700;2024-02-26T00:53:17;0.80;99.90
20528;DHT22;23612;50.894;10.700;2024-02-26T00:55:42;0.80;99.90
20528;DHT22;23612;50.894;10.700;2024-02-26T00:58:08;0.70;99.90
20528;DHT22;23612;50.894;10.700;2024-02-26T01:00:34;0.60;99.90
20528;DHT22;23612;50.894;10.700;2024-02-26T01:03:00;0.40;99.90
20528;DHT22;23612;50.894;10.700;2024-02-26T01:05:25;0.40;99.90
20528;DHT22;23612;50.894;10.700;2024-02-26T01:07:50;0.40;99.90
20528;DHT22;23612;50.894;10.700;2024-02-26T01:10:16;0.30;99.90
20528;DHT22;23612;50.894;10.700;2024-02-26T01:12:41;0.30;99.90
20528;DHT22;23612;50.894;10.700;2024-02-26T01:15:07;0.40;99.90
20528;DHT22;23612;50.894;10.700;2024-02-26T01:17:33;0.30;99.90
20528;DHT22;23612;50.894;10.700;2024-02-26T01:19:59;0.30;99.90
20528;DHT22;23612;50.894;10.700;2024-02-26T01:22:24;0.30;99.90
20528;DHT22;23612;50.894;10.700;2024-02-26T01:24:50;0.30;99.90
20528;DHT22;23612;50.894;10.700;2024-02-26T01:27:15;0.40;99.90
20528;DHT22;23612;50.894;10.700;2024-02-26T01:29:41;0.40;99.90
20528;DHT22;23612;50.894;10.700;2024-02-26T01:32:07;0.40;99.90
20528;DHT22;23612;50.894;10.700;2024-02-26T01:34:32;0.50;99.90
20528;DHT22;23612;50.894;10.700;2024-02-26T01:36:58;0.50;99.90
20528;DHT22;23612;50.894;10.700;2024-02-26T01:39:23;0.60;99.90
20528;DHT22;23612;50.894;10.700;2024-02-26T01:41:49;0.50;99.90
20528;DHT22;23612;50.894;10.700;2024-02-26T01:44:14;0.70;99.90
20528;DHT22;23612;50.894;10.700;2024-02-26T01:46:40;0.70;99.90
20528;DHT22;23612;50.894;10.700;2024-02-26T01:49:06;0.70;99.90
20528;DHT22;23612;50.894;10.700;2024-02-26T01:51:33;0.70;99.90
20528;DHT22;23612;50.894;10.700;2024-02-26T01:53:59;0.70;99.90
20528;DHT22;23612;50.894;10.700;2024-02-26T01:56:28;0.70;99.90
20528;DHT22;23612;50.894;10.700;2024-02-26T01:58:57;0.70;99.90
20528;DHT22;23612;50.894;10.700;2024-02-26T02:01:27;0.70;99.90
20528;DHT22;23612;50.894;10.700;2024-02-26T02:03:59;0.70;99.90
20528;DHT22;23612;50.894;10.700;2024-02-26T02:06:25;0.60;99.90
20528;DHT22;23612;50.894;10.700;2024-02-26T02:08:51;0.60;99.90
20528;DHT22;23612;50.894;10.700;2024-02-26T02:11:17;0.50;99.90
20528;DHT22;23612;50.894;10.700;2024-02-26T02:13:42;0.40;99.90
20528;DHT22;23612;50.894;10.700;2024-02-26T02:16:08;0.40;99.90
20528;DHT22;23612;50.894;10.700;2024-02-26T02:18:34;0.40;99.90
20528;DHT22;23612;50.894;10.700;2024-02-26T02:21:02;0.30;99.90
20528;DHT22;23612;50.894;10.700;2024-02-26T02:23:28;0.30;99.90
20528;DHT22;23612;50.894;10.700;2024-02-26T02:25:54;0.30;99.90
20528;DHT22;23612;50.894;10.700;2024-02-26T02:28:21;0.30;99.90
20528;DHT22;23612;50.894;10.700;2024-02-26T02:30:47;0.30;99.90
20528;DHT22;23612;50.894;10.700;2024-02-26T02:33:13;0.20;99.90
20528;DHT22;23612;50.894;10.700;2024-02-26T02:35:40;0.30;99.90
20528;DHT22;23612;50.894;10.700;2024-02-26T02:38:06;0.30;99.90
20528;DHT22;23612;50.894;10.700;2024-02-26T02:40:31;0.30;99.90
20528;DHT22;23612;50.894;10.700;2024-02-26T02:42:57;0.40;99.90
20528;DHT22;23612;50.894;10.700;2024-02-26T02:45:22;0.50;99.90
20528;DHT22;23612;50.894;10.700;2024-02-26T02:47:48;0.60;99.90
20528;DHT22;23612;50.894;10.700;2024-02-26T02:50:13;0.60;99.90
20528;DHT22;23612;50.894;10.700;2024-02-26T02:52:39;0.60;99.90
20528;DHT22;23612;50.894;10.700;2024-02-26T02:55:05;0.50;99.90
20528;DHT22;23612;50.894;10.700;2024-02-26T02:57:31;0.50;99.90
20528;DHT22;23612;50.894;10.700;2024-02-26T02:59:57;0.50;99.90
20528;DHT22;23612;50.894;10.700;2024-02-26T03:02:23;0.40;99.90
20528;DHT22;23612;50.894;10.700;2024-02-26T03:04:50;0.40;99.90
20528;DHT22;23612;50.894;10.700;2024-02-26T03:07:15;0.40;99.90
20528;DHT22;23612;50.894;10.700;2024-02-26T03:09:41;0.40;99.90
20528;DHT22;23612;50.894;10.700;2024-02-26T03:12:06;0.30;99.90
20528;DHT22;23612;50.894;10.700;2024-02-26T03:14:32;0.40;99.90
20528;DHT22;23612;50.894;10.700;2024-02-26T03:16:57;0.40;99.90
20528;DHT22;23612;50.894;10.700;2024-02-26T03:19:23;0.40;99.90
20528;DHT22;23612;50.894;10.700;2024-02-26T03:21:48;0.40;99.90
20528;DHT22;23612;50.894;10.700;2024-02-26T03:24:14;0.40;99.90
20528;DHT22;23612;50.894;10.700;2024-02-26T03:26:40;0.40;99.90
20528;DHT22;23612;50.894;10.700;2024-02-26T03:29:05;0.30;99.90
20528;DHT22;23612;50.894;10.700;2024-02-26T03:31:31;0.30;99.90
20528;DHT22;23612;50.894;10.700;2024-02-26T03:33:57;0.30;99.90
20528;DHT22;23612;50.894;10.700;2024-02-26T03:36:22;0.20;99.90
20528;DHT22;23612;50.894;10.700;2024-02-26T03:38:48;0.20;99.90
20528;DHT22;23612;50.894;10.700;2024-02-26T03:41:13;0.20;99.90
20528;DHT22;23612;50.894;10.700;2024-02-26T03:43:39;0.20;99.90
20528;DHT22;23612;50.894;10.700;2024-02-26T03:46:07;0.10;99.90
20528;DHT22;23612;50.894;10.700;2024-02-26T03:48:34;0.20;99.90
20528;DHT22;23612;50.894;10.700;2024-02-26T03:50:59;0.30;99.90
20528;DHT22;23612;50.894;10.700;2024-02-26T03:53:25;0.30;99.90
20528;DHT22;23612;50.894;10.700;2024-02-26T03:55:51;0.30;99.90
20528;DHT22;23612;50.894;10.700;2024-02-26T03:58:17;0.30;99.90
20528;DHT22;23612;50.894;10.700;2024-02-26T04:00:43;0.40;99.90
20528;DHT22;23612;50.894;10.700;2024-02-26T04:03:09;0.40;99.90
20528;DHT22;23612;50.894;10.700;2024-02-26T04:05:34;0.40;99.90
20528;DHT22;23612;50.894;10.700;2024-02-26T04:08:00;0.40;99.90
20528;DHT22;23612;50.894;10.700;2024-02-26T04:10:25;0.50;99.90
20528;DHT22;23612;50.894;10.700;2024-02-26T04:12:51;0.70;99.90
20528;DHT22;23612;50.894;10.700;2024-02-26T04:15:16;0.80;99.90
20528;DHT22;23612;50.894;10.700;2024-02-26T04:17:42;1.00;99.90
20528;DHT22;23612;50.894;10.700;2024-02-26T04:20:12;1.00;99.90
20528;DHT22;23612;50.894;10.700;2024-02-26T04:22:38;1.10;99.90
20528;DHT22;23612;50.894;10.700;2024-02-26T04:25:03;1.10;99.90
20528;DHT22;23612;50.894;10.700;2024-02-26T04:27:29;1.10;99.90
20528;DHT22;23612;50.894;10.700;2024-02-26T04:29:54;1.10;99.90
20528;DHT22;23612;50.894;10.700;2024-02-26T04:32:20;1.10;99.90
20528;DHT22;23612;50.894;10.700;2024-02-26T04:34:46;1.10;99.90
20528;DHT22;23612;50.894;10.700;2024-02-26T04:37:11;1.00;99.90
20528;DHT22;23612;50.894;10.700;2024-02-26T04:39:37;0.90;99.90
20528;DHT22;23612;50.894;10.700;2024-02-26T04:42:02;0.90;99.90
20528;DHT22;23612;50.894;10.700;2024-02-26T04:44:29;1.00;99.90
20528;DHT22;23612;50.894;10.700;2024-02-26T04:46:54;1.00;99.90
20528;DHT22;23612;50.894;10.700;2024-02-26T04:49:20;0.90;99.90
20528;DHT22;23612;50.894;10.700;2024-02-26T04:51:45;1.00;99.90
20528;DHT22;23612;50.894;10.700;2024-02-26T04:54:13;0.90;99.90
20528;DHT22;23612;50.894;10.700;2024-02-26T04:56:38;1.00;99.90
20528;DHT22;23612;50.894;10.700;2024-02-26T04:59:04;1.00;99.90
20528;DHT22;23612;50.894;10.700;2024-02-26T05:01:29;1.00;99.90
20528;DHT22;23612;50.894;10.700;2024-02-26T05:03:55;1.10;99.90
20528;DHT22;23612;50.894;10.700;2024-02-26T05:06:20;1.10;99.90
20528;DHT22;23612;50.894;10.700;2024-02-26T05:08:46;1.00;99.90
20528;DHT22;23612;50.894;10.700;2024-02-26T05:11:11;1.00;99.90
20528;DHT22;23612;50.894;10.700;2024-02-26T05:13:37;0.90;99.90
20528;DHT22;23612;50.894;10.700;2024-02-26T05:16:02;0.90;99.90
20528;DHT22;23612;50.894;10.700;2024-02-26T05:18:28;0.90;99.90
20528;DHT22;23612;50.894;10.700;2024-02-26T05:20:53;0.90;99.90
20528;DHT22;23612;50.894;10.700;2024-02-26T05:23:19;0.90;99.90
20528;DHT22;23612;50.894;10.700;2024-02-26T05:25:44;1.10;99.90
20528;DHT22;23612;50.894;10.700;2024-02-26T05:28:12;1.20;99.90
20528;DHT22;23612;50.894;10.700;2024-02-26T05:30:38;1.20;99.90
20528;DHT22;23612;50.894;10.700;2024-02-26T05:33:05;1.10;99.90
20528;DHT22;23612;50.894;10.700;2024-02-26T05:35:30;1.10;99.90
20528;DHT22;23612;50.894;10.700;2024-02-26T05:37:56;1.10;99.90
20528;DHT22;23612;50.894;10.700;2024-02-26T05:40:21;1.00;99.90
20528;DHT22;23612;50.894;10.700;2024-02-26T05:42:47;1.00;99.90
20528;DHT22;23612;50.894;10.700;2024-02-26T05:45:14;1.00;99.90
20528;DHT22;23612;50.894;10.700;2024-02-26T05:47:39;0.90;99.90
20528;DHT22;23612;50.894;10.700;2024-02-26T05:50:09;0.90;99.90
20528;DHT22;23612;50.894;10.700;2024-02-26T05:52:36;1.00;99.90
20528;DHT22;23612;50.894;10.700;2024-02-26T05:55:02;1.00;99.90
20528;DHT22;23612;50.894;10.700;2024-02-26T05:57:27;1.00;99.90
20528;DHT22;23612;50.894;10.700;2024-02-26T05:59:53;1.00;99.90
20528;DHT22;23612;50.894;10.700;2024-02-26T06:02:18;1.10;99.90
20528;DHT22;23612;50.894;10.700;2024-02-26T06:04:44;1.00;99.90
20528;DHT22;23612;50.894;10.700;2024-02-26T06:07:09;1.00;99.90
20528;DHT22;23612;50.894;10.700;2024-02-26T06:09:35;1.10;99.90
20528;DHT22;23612;50.894;10.700;2024-02-26T06:12:00;1.20;99.90
20528;DHT22;23612;50.894;10.700;2024-02-26T06:14:26;1.10;99.90
20528;DHT22;23612;50.894;10.700;2024-02-26T06:16:51;1.00;99.90
20528;DHT22;23612;50.894;10.700;2024-02-26T06:19:17;0.90;99.90
20528;DHT22;23612;50.894;10.700;2024-02-26T06:21:42;0.80;99.90
20528;DHT22;23612;50.894;10.700;2024-02-26T06:24:07;0.80;99.90
20528;DHT22;23612;50.894;10.700;2024-02-26T06:26:33;0.80;99.90
20528;DHT22;23612;50.894;10.700;2024-02-26T06:28:59;0.90;99.90
20528;DHT22;23612;50.894;10.700;2024-02-26T06:31:24;0.90;99.90
20528;DHT22;23612;50.894;10.700;2024-02-26T06:33:53;1.00;99.90
20528;DHT22;23612;50.894;10.700;2024-02-26T06:36:18;1.00;99.90
20528;DHT22;23612;50.894;10.700;2024-02-26T06:38:44;1.10;99.90
20528;DHT22;23612;50.894;10.700;2024-02-26T06:41:09;1.20;99.90
20528;DHT22;23612;50.894;10.700;2024-02-26T06:43:35;1.20;99.90
20528;DHT22;23612;50.894;10.700;2024-02-26T06:46:00;1.30;99.90
20528;DHT22;23612;50.894;10.700;2024-02-26T06:48:25;1.30;99.90
20528;DHT22;23612;50.894;10.700;2024-02-26T06:50:51;1.40;99.90
20528;DHT22;23612;50.894;10.700;2024-02-26T06:53:16;1.40;99.90
20528;DHT22;23612;50.894;10.700;2024-02-26T06:55:42;1.50;99.90
20528;DHT22;23612;50.894;10.700;2024-02-26T06:58:08;1.50;99.90
20528;DHT22;23612;50.894;10.700;2024-02-26T07:00:34;1.60;99.90
20528;DHT22;23612;50.894;10.700;2024-02-26T07:02:59;1.60;99.90
20528;DHT22;23612;50.894;10.700;2024-02-26T07:05:25;1.70;99.90
20528;DHT22;23612;50.894;10.700;2024-02-26T07:07:51;1.90;99.90
20528;DHT22;23612;50.894;10.700;2024-02-26T07:10:17;2.20;99.90
20528;DHT22;23612;50.894;10.700;2024-02-26T07:12:42;2.20;99.90
20528;DHT22;23612;50.894;10.700;2024-02-26T07:15:09;2.20;99.90
20528;DHT22;23612;50.894;10.700;2024-02-26T07:17:35;2.40;99.90
20528;DHT22;23612;50.894;10.700;2024-02-26T07:20:00;2.50;99.90
20528;DHT22;23612;50.894;10.700;2024-02-26T07:22:26;2.70;99.90
20528;DHT22;23612;50.894;10.700;2024-02-26T07:24:51;2.70;99.90
20528;DHT22;23612;50.894;10.700;2024-02-26T07:27:18;2.70;99.90
20528;DHT22;23612;50.894;10.700;2024-02-26T07:29:43;2.60;99.90
20528;DHT22;23612;50.894;10.700;2024-02-26T07:32:09;2.40;99.90
20528;DHT22;23612;50.894;10.700;2024-02-26T07:34:35;2.40;99.90
20528;DHT22;23612;50.894;10.700;2024-02-26T07:37:03;2.40;99.90
20528;DHT22;23612;50.894;10.700;2024-02-26T07:39:28;2.50;99.90
20528;DHT22;23612;50.894;10.700;2024-02-26T07:41:54;2.60;99.90
20528;DHT22;23612;50.894;10.700;2024-02-26T07:44:19;2.80;99.90
20528;DHT22;23612;50.894;10.700;2024-02-26T07:46:45;2.80;99.90
20528;DHT22;23612;50.894;10.700;2024-02-26T07:49:10;2.90;99.90
20528;DHT22;23612;50.894;10.700;2024-02-26T07:51:36;3.00;99.90
20528;DHT22;23612;50.894;10.700;2024-02-26T07:54:02;3.00;99.90
20528;DHT22;23612;50.894;10.700;2024-02-26T07:56:27;3.30;99.90
20528;DHT22;23612;50.894;10.700;2024-02-26T07:58:53;3.50;99.90
20528;DHT22;23612;50.894;10.700;2024-02-26T08:01:18;3.70;99.90
20528;DHT22;23612;50.894;10.700;2024-02-26T08:03:44;3.80;99.90
20528;DHT22;23612;50.894;10.700;2024-02-26T08:06:09;3.90;99.90
20528;DHT22;23612;50.894;10.700;2024-02-26T08:08:35;3.70;99.90
20528;DHT22;23612;50.894;10.700;2024-02-26T08:11:00;3.60;99.90
20528;DHT22;23612;50.894;10.700;2024-02-26T08:13:26;3.60;99.90
20528;DHT22;23612;50.894;10.700;2024-02-26T08:15:51;3.80;99.90
20528;DHT22;23612;50.894;10.700;2024-02-26T08:18:18;4.20;99.90
20528;DHT22;23612;50.894;10.700;2024-02-26T08:20:44;4.40;99.90
20528;DHT22;23612;50.894;10.700;2024-02-26T08:23:10;4.50;99.90
20528;DHT22;23612;50.894;10.700;2024-02-26T08:25:35;4.50;99.90
20528;DHT22;23612;50.894;10.700;2024-02-26T08:28:01;4.50;99.90
20528;DHT22;23612;50.894;10.700;2024-02-26T08:30:26;4.50;99.90
20528;DHT22;23612;50.894;10.700;2024-02-26T08:32:51;4.50;99.90
20528;DHT22;23612;50.894;10.700;2024-02-26T08:35:18;4.70;99.90
20528;DHT22;23612;50.894;10.700;2024-02-26T08:37:44;4.90;99.90
20528;DHT22;23612;50.894;10.700;2024-02-26T08:40:11;5.10;99.90
20528;DHT22;23612;50.894;10.700;2024-02-26T08:42:36;5.20;99.90
20528;DHT22;23612;50.894;10.700;2024-02-26T08:45:02;5.40;99.90
20528;DHT22;23612;50.894;10.700;2024-02-26T08:47:28;5.50;99.90
20528;DHT22;23612;50.894;10.700;2024-02-26T08:50:03;5.60;99.90
20528;DHT22;23612;50.894;10.700;2024-02-26T08:52:29;5.60;99.90
20528;DHT22;23612;50.894;10.700;2024-02-26T08:54:55;5.60;99.90
20528;DHT22;23612;50.894;10.700;2024-02-26T08:57:20;5.60;99.90
20528;DHT22;23612;50.894;10.700;2024-02-26T08:59:45;5.80;99.90
20528;DHT22;23612;50.894;10.700;2024-02-26T09:02:11;5.80;99.90
20528;DHT22;23612;50.894;10.700;2024-02-26T09:04:36;5.80;99.90
20528;DHT22;23612;50.894;10.700;2024-02-26T09:07:02;5.90;99.90
20528;DHT22;23612;50.894;10.700;2024-02-26T09:09:28;6.20;99.90
20528;DHT22;23612;50.894;10.700;2024-02-26T09:11:53;6.50;99.90
20528;DHT22;23612;50.894;10.700;2024-02-26T09:14:20;6.90;99.90
20528;DHT22;23612;50.894;10.700;2024-02-26T09:16:46;7.50;99.90
20528;DHT22;23612;50.894;10.700;2024-02-26T09:19:13;8.40;99.90
20528;DHT22;23612;50.894;10.700;2024-02-26T09:21:43;9.50;99.90
20528;DHT22;23612;50.894;10.700;2024-02-26T09:24:08;10.00;99.90
20528;DHT22;23612;50.894;10.700;2024-02-26T09:26:34;10.20;99.90
20528;DHT22;23612;50.894;10.700;2024-02-26T09:28:59;10.30;99.90
20528;DHT22;23612;50.894;10.700;2024-02-26T09:31:25;10.40;99.90
20528;DHT22;23612;50.894;10.700;2024-02-26T09:33:50;10.40;99.90
20528;DHT22;23612;50.894;10.700;2024-02-26T09:36:15;10.50;99.90
20528;DHT22;23612;50.894;10.700;2024-02-26T09:38:41;10.30;99.90
20528;DHT22;23612;50.894;10.700;2024-02-26T09:41:07;9.90;99.90
20528;DHT22;23612;50.894;10.700;2024-02-26T09:43:41;9.70;99.90
20528;DHT22;23612;50.894;10.700;2024-02-26T09:46:08;9.30;99.90
20528;DHT22;23612;50.894;10.700;2024-02-26T09:48:34;9.10;99.90
20528;DHT22;23612;50.894;10.700;2024-02-26T09:51:02;8.80;99.90
20528;DHT22;23612;50.894;10.700;2024-02-26T09:53:29;8.80;99.90
20528;DHT22;23612;50.894;10.700;2024-02-26T09:55:57;8.70;99.90
20528;DHT22;23612;50.894;10.700;2024-02-26T09:58:23;8.40;99.90
20528;DHT22;23612;50.894;10.700;2024-02-26T10:00:53;8.40;99.90
20528;DHT22;23612;50.894;10.700;2024-02-26T10:03:22;8.40;99.90
20528;DHT22;23612;50.894;10.700;2024-02-26T10:05:50;8.30;99.90
20528;DHT22;23612;50.894;10.700;2024-02-26T10:08:16;8.30;99.90
20528;DHT22;23612;50.894;10.700;2024-02-26T10:10:44;8.30;99.90
20528;DHT22;23612;50.894;10.700;2024-02-26T10:13:10;8.30;99.90
20528;DHT22;23612;50.894;10.700;2024-02-26T10:15:37;8.20;99.90
20528;DHT22;23612;50.894;10.700;2024-02-26T10:18:06;8.20;99.90
20528;DHT22;23612;50.894;10.700;2024-02-26T10:20:31;8.50;99.90
20528;DHT22;23612;50.894;10.700;2024-02-26T10:22:57;8.50;99.90
20528;DHT22;23612;50.894;10.700;2024-02-26T10:25:23;8.50;99.90
20528;DHT22;23612;50.894;10.700;2024-02-26T10:27:49;8.40;99.90
20528;DHT22;23612;50.894;10.700;2024-02-26T10:30:22;8.60;99.90
20528;DHT22;23612;50.894;10.700;2024-02-26T10:32:51;8.70;99.90
20528;DHT22;23612;50.894;10.700;2024-02-26T10:35:17;9.00;99.90
20528;DHT22;23612;50.894;10.700;2024-02-26T10:37:43;9.00;99.90
20528;DHT22;23612;50.894;10.700;2024-02-26T10:40:13;9.50;99.90
20528;DHT22;23612;50.894;10.700;2024-02-26T10:42:38;9.80;99.90
20528;DHT22;23612;50.894;10.700;2024-02-26T10:45:05;9.70;99.90
20528;DHT22;23612;50.894;10.700;2024-02-26T10:47:31;9.40;99.90
20528;DHT22;23612;50.894;10.700;2024-02-26T10:49:59;9.50;99.90
20528;DHT22;23612;50.894;10.700;2024-02-26T10:52:25;9.30;99.90
20528;DHT22;23612;50.894;10.700;2024-02-26T10:54:54;9.10;99.90
20528;DHT22;23612;50.894;10.700;2024-02-26T10:57:21;9.10;99.90
20528;DHT22;23612;50.894;10.700;2024-02-26T10:59:48;8.70;99.90
20528;DHT22;23612;50.894;10.700;2024-02-26T11:02:14;8.30;99.90
20528;DHT22;23612;50.894;10.700;2024-02-26T11:04:40;7.90;99.90
20528;DHT22;23612;50.894;10.700;2024-02-26T11:07:08;7.90;99.90
20528;DHT22;23612;50.894;10.700;2024-02-26T11:09:34;8.10;99.90
20528;DHT22;23612;50.894;10.700;2024-02-26T11:12:01;8.10;99.90
20528;DHT22;23612;50.894;10.700;2024-02-26T11:14:29;8.00;99.90
20528;DHT22;23612;50.894;10.700;2024-02-26T11:16:57;7.80;99.90
20528;DHT22;23612;50.894;10.700;2024-02-26T11:19:24;7.90;99.90
20528;DHT22;23612;50.894;10.700;2024-02-26T11:21:50;8.10;99.90
20528;DHT22;23612;50.894;10.700;2024-02-26T11:24:16;8.50;99.90
20528;DHT22;23612;50.894;10.700;2024-02-26T11:26:48;8.50;99.90
20528;DHT22;23612;50.894;10.700;2024-02-26T11:29:19;8.60;99.90
20528;DHT22;23612;50.894;10.700;2024-02-26T11:31:46;8.70;99.90
20528;DHT22;23612;50.894;10.700;2024-02-26T11:34:12;8.70;99.90
20528;DHT22;23612;50.894;10.700;2024-02-26T11:36:38;8.20;99.90
20528;DHT22;23612;50.894;10.700;2024-02-26T11:39:04;8.20;99.90
20528;DHT22;23612;50.894;10.700;2024-02-26T11:41:31;8.00;99.90
20528;DHT22;23612;50.894;10.700;2024-02-26T11:44:03;8.00;99.90
20528;DHT22;23612;50.894;10.700;2024-02-26T11:46:33;8.00;99.90
20528;DHT22;23612;50.894;10.700;2024-02-26T11:49:04;8.00;99.90
20528;DHT22;23612;50.894;10.700;2024-02-26T11:51:51;7.90;99.90
20528;DHT22;23612;50.894;10.700;2024-02-26T11:54:38;7.80;99.90
20528;DHT22;23612;50.894;10.700;2024-02-26T11:57:03;7.30;99.90
20528;DHT22;23612;50.894;10.700;2024-02-26T11:59:39;7.10;99.90
20528;DHT22;23612;50.894;10.700;2024-02-26T12:02:04;7.00;99.90
20528;DHT22;23612;50.894;10.700;2024-02-26T12:04:30;6.90;99.90
20528;DHT22;23612;50.894;10.700;2024-02-26T12:07:01;6.80;99.90
20528;DHT22;23612;50.894;10.700;2024-02-26T12:09:35;6.80;99.90
20528;DHT22;23612;50.894;10.700;2024-02-26T12:12:02;6.80;99.90
20528;DHT22;23612;50.894;10.700;2024-02-26T12:14:28;7.00;99.90
20528;DHT22;23612;50.894;10.700;2024-02-26T12:16:55;7.00;99.90
20528;DHT22;23612;50.894;10.700;2024-02-26T12:19:21;7.20;99.90
20528;DHT22;23612;50.894;10.700;2024-02-26T12:21:51;7.30;99.90
20528;DHT22;23612;50.894;10.700;2024-02-26T12:24:18;7.40;99.90
20528;DHT22;23612;50.894;10.700;2024-02-26T12:26:45;7.40;99.90
20528;DHT22;23612;50.894;10.700;2024-02-26T12:29:10;7.30;99.90
20528;DHT22;23612;50.894;10.700;2024-02-26T12:31:36;7.10;99.90
20528;DHT22;23612;50.894;10.700;2024-02-26T12:34:03;7.20;99.90
20528;DHT22;23612;50.894;10.700;2024-02-26T12:36:29;7.20;99.90
20528;DHT22;23612;50.894;10.700;2024-02-26T12:38:55;7.10;99.90
20528;DHT22;23612;50.894;10.700;2024-02-26T12:41:21;7.20;99.90
20528;DHT22;23612;50.894;10.700;2024-02-26T12:43:47;7.20;99.90
20528;DHT22;23612;50.894;10.700;2024-02-26T12:46:12;7.20;99.90
20528;DHT22;23612;50.894;10.700;2024-02-26T12:48:43;7.30;99.90
20528;DHT22;23612;50.894;10.700;2024-02-26T12:51:12;7.40;99.90
20528;DHT22;23612;50.894;10.700;2024-02-26T12:53:39;7.50;99.90
20528;DHT22;23612;50.894;10.700;2024-02-26T12:56:07;7.60;99.90
20528;DHT22;23612;50.894;10.700;2024-02-26T12:58:33;7.60;99.90
20528;DHT22;23612;50.894;10.700;2024-02-26T13:00:59;7.60;99.90
20528;DHT22;23612;50.894;10.700;2024-02-26T13:03:24;7.60;99.90
20528;DHT22;23612;50.894;10.700;2024-02-26T13:05:51;7.70;99.90
20528;DHT22;23612;50.894;10.700;2024-02-26T13:08:20;7.60;99.90
20528;DHT22;23612;50.894;10.700;2024-02-26T13:10:46;7.70;99.90
20528;DHT22;23612;50.894;10.700;2024-02-26T13:13:14;7.70;99.90
20528;DHT22;23612;50.894;10.700;2024-02-26T13:15:41;7.60;99.90
20528;DHT22;23612;50.894;10.700;2024-02-26T13:18:11;7.60;99.90
20528;DHT22;23612;50.894;10.700;2024-02-26T13:20:37;7.70;99.90
20528;DHT22;23612;50.894;10.700;2024-02-26T13:23:06;7.90;99.90
20528;DHT22;23612;50.894;10.700;2024-02-26T13:25:36;7.90;99.90
20528;DHT22;23612;50.894;10.700;2024-02-26T13:28:25;7.90;99.90
20528;DHT22;23612;50.894;10.700;2024-02-26T13:30:53;8.00;99.90
20528;DHT22;23612;50.894;10.700;2024-02-26T13:33:22;8.00;99.90
20528;DHT22;23612;50.894;10.700;2024-02-26T13:35:48;8.10;99.90
20528;DHT22;23612;50.894;10.700;2024-02-26T13:38:13;8.00;99.90
20528;DHT22;23612;50.894;10.700;2024-02-26T13:40:39;7.90;99.90
20528;DHT22;23612;50.894;10.700;2024-02-26T13:43:05;7.90;99.90
20528;DHT22;23612;50.894;10.700;2024-02-26T13:45:33;8.00;99.90
20528;DHT22;23612;50.894;10.700;2024-02-26T13:48:03;8.00;99.90
20528;DHT22;23612;50.894;10.700;2024-02-26T13:50:29;8.00;99.90
20528;DHT22;23612;50.894;10.700;2024-02-26T13:52:54;8.00;99.90
20528;DHT22;23612;50.894;10.700;2024-02-26T13:55:22;8.00;99.90
20528;DHT22;23612;50.894;10.700;2024-02-26T13:57:48;8.00;99.90
20528;DHT22;23612;50.894;10.700;2024-02-26T14:00:17;8.00;99.90
20528;DHT22;23612;50.894;10.700;2024-02-26T14:02:43;8.00;99.90
20528;DHT22;23612;50.894;10.700;2024-02-26T14:05:08;7.90;99.90
20528;DHT22;23612;50.894;10.700;2024-02-26T14:07:34;7.90;99.90
20528;DHT22;23612;50.894;10.700;2024-02-26T14:09:59;7.80;99.90
20528;DHT22;23612;50.894;10.700;2024-02-26T14:12:25;7.80;99.90
20528;DHT22;23612;50.894;10.700;2024-02-26T14:14:50;7.90;99.90
20528;DHT22;23612;50.894;10.700;2024-02-26T14:17:18;7.90;99.90
20528;DHT22;23612;50.894;10.700;2024-02-26T14:19:44;7.90;99.90
20528;DHT22;23612;50.894;10.700;2024-02-26T14:22:12;8.00;99.90
20528;DHT22;23612;50.894;10.700;2024-02-26T14:24:38;8.00;99.90
20528;DHT22;23612;50.894;10.700;2024-02-26T14:27:05;8.00;99.90
20528;DHT22;23612;50.894;10.700;2024-02-26T14:29:31;7.90;99.90
20528;DHT22;23612;50.894;10.700;2024-02-26T14:31:56;8.00;99.90
20528;DHT22;23612;50.894;10.700;2024-02-26T14:34:22;8.10;99.90
20528;DHT22;23612;50.894;10.700;2024-02-26T14:36:47;8.20;99.90
20528;DHT22;23612;50.894;10.700;2024-02-26T14:39:14;8.20;99.90
20528;DHT22;23612;50.894;10.700;2024-02-26T14:41:39;8.30;99.90
20528;DHT22;23612;50.894;10.700;2024-02-26T14:44:05;8.30;99.90
20528;DHT22;23612;50.894;10.700;2024-02-26T14:46:31;8.20;99.90
20528;DHT22;23612;50.894;10.700;2024-02-26T14:48:56;8.20;99.90
20528;DHT22;23612;50.894;10.700;2024-02-26T14:51:23;8.20;99.90
20528;DHT22;23612;50.894;10.700;2024-02-26T14:53:48;8.10;99.90
20528;DHT22;23612;50.894;10.700;2024-02-26T14:56:14;8.10;99.90
20528;DHT22;23612;50.894;10.700;2024-02-26T14:58:40;8.00;99.90
20528;DHT22;23612;50.894;10.700;2024-02-26T15:01:05;7.90;99.90
20528;DHT22;23612;50.894;10.700;2024-02-26T15:03:30;7.90;99.90
20528;DHT22;23612;50.894;10.700;2024-02-26T15:05:56;7.90;99.90
20528;DHT22;23612;50.894;10.700;2024-02-26T15:08:21;7.90;99.90
20528;DHT22;23612;50.894;10.700;2024-02-26T15:10:47;7.90;99.90
20528;DHT22;23612;50.894;10.700;2024-02-26T15:13:14;7.90;99.90
20528;DHT22;23612;50.894;10.700;2024-02-26T15:15:41;7.90;99.90
20528;DHT22;23612;50.894;10.700;2024-02-26T15:18:07;7.80;99.90
20528;DHT22;23612;50.894;10.700;2024-02-26T15:20:33;7.80;99.90
20528;DHT22;23612;50.894;10.700;2024-02-26T15:22:59;7.80;99.90
20528;DHT22;23612;50.894;10.700;2024-02-26T15:25:24;7.70;99.90